sensor_id;sensor_type;location;lat;lon;timestamp;P1;durP1;ratioP1;P2;durP2;ratioP2
80334;SDS011;69653;52.674;13.574;2023-07-29T00:02:16;10.10;;;5.88;;
80334;SDS011;69653;52.674;13.574;2023-07-29T00:04:41;10.33;;;5.77;;
80334;SDS011;69653;52.674;13.574;2023-07-29T00:07:07;11.60;;;5.53;;
80334;SDS011;69653;52.674;13.574;2023-07-29T00:09:32;19.53;;;9.77;;
80334;SDS011;69653;52.674;13.574;2023-07-29T00:11:57;13.00;;;6.20;;
80334;SDS011;69653;52.674;13.574;2023-07-29T00:14:23;13.37;;;6.50;;
80334;SDS011;69653;52.674;13.574;2023-07-29T00:16:48;12.20;;;6.07;;
80334;SDS011;69653;52.674;13.574;2023-07-29T00:19:13;9.43;;;5.23;;
80334;SDS011;69653;52.674;13.574;2023-07-29T00:21:39;11.73;;;6.13;;
80334;SDS011;69653;52.674;13.574;2023-07-29T00:24:06;13.05;;;6.03;;
80334;SDS011;69653;52.674;13.574;2023-07-29T00:26:31;11.60;;;6.25;;
80334;SDS011;69653;52.674;13.574;2023-07-29T00:28:57;10.50;;;5.38;;
80334;SDS011;69653;52.674;13.574;2023-07-29T00:31:23;11.95;;;6.63;;
80334;SDS011;69653;52.674;13.574;2023-07-29T00:33:48;10.33;;;5.57;;
80334;SDS011;69653;52.674;13.574;2023-07-29T00:36:14;12.33;;;5.50;;
80334;SDS011;69653;52.674;13.574;2023-07-29T00:38:39;8.88;;;5.25;;
80334;SDS011;69653;52.674;13.574;2023-07-29T00:41:05;12.43;;;5.70;;
80334;SDS011;69653;52.674;13.574;2023-07-29T00:43:30;10.23;;;5.60;;
80334;SDS011;69653;52.674;13.574;2023-07-29T00:45:56;10.73;;;5.43;;
80334;SDS011;69653;52.674;13.574;2023-07-29T00:48:22;12.75;;;5.88;;
80334;SDS011;69653;52.674;13.574;2023-07-29T00:50:48;15.63;;;7.75;;
80334;SDS011;69653;52.674;13.574;2023-07-29T00:53:13;12.32;;;6.43;;
80334;SDS011;69653;52.674;13.574;2023-07-29T00:55:39;10.80;;;5.53;;
80334;SDS011;69653;52.674;13.574;2023-07-29T00:58:04;14.97;;;6.83;;
80334;SDS011;69653;52.674;13.574;2023-07-29T01:00:30;11.97;;;6.27;;
80334;SDS011;69653;52.674;13.574;2023-07-29T01:02:56;17.02;;;7.93;;
80334;SDS011;69653;52.674;13.574;2023-07-29T01:05:21;13.43;;;7.07;;
80334;SDS011;69653;52.674;13.574;2023-07-29T01:08:03;11.90;;;6.50;;
80334;SDS011;69653;52.674;13.574;2023-07-29T01:10:46;11.57;;;6.70;;
80334;SDS011;69653;52.674;13.574;2023-07-29T01:13:20;19.50;;;7.93;;
80334;SDS011;69653;52.674;13.574;2023-07-29T01:16:08;31.00;;;8.45;;
80334;SDS011;69653;52.674;13.574;2023-07-29T01:18:40;20.95;;;8.35;;
80334;SDS011;69653;52.674;13.574;2023-07-29T01:21:07;23.35;;;8.73;;
80334;SDS011;69653;52.674;13.574;2023-07-29T01:23:34;30.15;;;8.82;;
80334;SDS011;69653;52.674;13.574;2023-07-29T01:26:00;19.58;;;8.50;;
80334;SDS011;69653;52.674;13.574;2023-07-29T01:28:26;16.15;;;7.78;;
80334;SDS011;69653;52.674;13.574;2023-07-29T01:30:57;23.63;;;8.60;;
80334;SDS011;69653;52.674;13.574;2023-07-29T01:33:30;17.55;;;7.70;;
80334;SDS011;69653;52.674;13.574;2023-07-29T01:36:11;16.33;;;8.23;;
80334;SDS011;69653;52.674;13.574;2023-07-29T01:38:40;31.15;;;8.05;;
80334;SDS011;69653;52.674;13.574;2023-07-29T01:41:07;27.95;;;8.35;;
80334;SDS011;69653;52.674;13.574;2023-07-29T01:43:33;30.55;;;8.10;;
80334;SDS011;69653;52.674;13.574;2023-07-29T01:46:02;39.13;;;8.65;;
80334;SDS011;69653;52.674;13.574;2023-07-29T01:48:27;24.20;;;8.20;;
80334;SDS011;69653;52.674;13.574;2023-07-29T01:50:55;71.47;;;10.50;;
80334;SDS011;69653;52.674;13.574;2023-07-29T01:53:20;27.50;;;10.10;;
80334;SDS011;69653;52.674;13.574;2023-07-29T01:55:46;17.57;;;8.60;;
80334;SDS011;69653;52.674;13.574;2023-07-29T01:58:11;19.73;;;8.37;;
80334;SDS011;69653;52.674;13.574;2023-07-29T02:00:36;15.38;;;7.65;;
80334;SDS011;69653;52.674;13.574;2023-07-29T02:03:02;13.03;;;7.40;;
80334;SDS011;69653;52.674;13.574;2023-07-29T02:05:27;12.55;;;6.97;;
80334;SDS011;69653;52.674;13.574;2023-07-29T02:07:53;11.73;;;7.03;;
80334;SDS011;69653;52.674;13.574;2023-07-29T02:10:18;12.40;;;6.78;;
80334;SDS011;69653;52.674;13.574;2023-07-29T02:12:43;13.27;;;6.93;;
80334;SDS011;69653;52.674;13.574;2023-07-29T02:15:09;14.33;;;7.17;;
80334;SDS011;69653;52.674;13.574;2023-07-29T02:17:34;10.65;;;6.15;;
80334;SDS011;69653;52.674;13.574;2023-07-29T02:20:01;15.13;;;5.40;;
80334;SDS011;69653;52.674;13.574;2023-07-29T02:22:26;15.48;;;5.72;;
80334;SDS011;69653;52.674;13.574;2023-07-29T02:24:51;8.63;;;5.40;;
80334;SDS011;69653;52.674;13.574;2023-07-29T02:27:17;11.73;;;5.20;;
80334;SDS011;69653;52.674;13.574;2023-07-29T02:29:42;10.70;;;4.80;;
80334;SDS011;69653;52.674;13.574;2023-07-29T02:32:07;10.10;;;5.97;;
80334;SDS011;69653;52.674;13.574;2023-07-29T02:34:33;10.90;;;5.93;;
80334;SDS011;69653;52.674;13.574;2023-07-29T02:36:58;16.83;;;5.88;;
80334;SDS011;69653;52.674;13.574;2023-07-29T02:39:24;9.80;;;5.93;;
80334;SDS011;69653;52.674;13.574;2023-07-29T02:41:49;10.27;;;6.20;;
80334;SDS011;69653;52.674;13.574;2023-07-29T02:44:15;10.68;;;5.90;;
80334;SDS011;69653;52.674;13.574;2023-07-29T02:46:40;10.93;;;5.88;;
80334;SDS011;69653;52.674;13.574;2023-07-29T02:49:06;13.00;;;5.80;;
80334;SDS011;69653;52.674;13.574;2023-07-29T02:51:31;13.17;;;5.60;;
80334;SDS011;69653;52.674;13.574;2023-07-29T02:53:56;10.73;;;6.33;;
80334;SDS011;69653;52.674;13.574;2023-07-29T02:56:22;11.38;;;6.47;;
80334;SDS011;69653;52.674;13.574;2023-07-29T02:58:47;12.53;;;7.17;;
80334;SDS011;69653;52.674;13.574;2023-07-29T03:01:12;12.53;;;7.13;;
80334;SDS011;69653;52.674;13.574;2023-07-29T03:03:38;12.18;;;7.18;;
80334;SDS011;69653;52.674;13.574;2023-07-29T03:06:05;12.52;;;6.97;;
80334;SDS011;69653;52.674;13.574;2023-07-29T03:08:34;11.00;;;6.60;;
80334;SDS011;69653;52.674;13.574;2023-07-29T03:11:07;10.52;;;6.63;;
80334;SDS011;69653;52.674;13.574;2023-07-29T03:13:38;11.48;;;6.35;;
80334;SDS011;69653;52.674;13.574;2023-07-29T03:16:07;11.20;;;6.28;;
80334;SDS011;69653;52.674;13.574;2023-07-29T03:18:40;10.38;;;6.22;;
80334;SDS011;69653;52.674;13.574;2023-07-29T03:21:06;11.23;;;6.72;;
80334;SDS011;69653;52.674;13.574;2023-07-29T03:23:32;11.93;;;6.40;;
80334;SDS011;69653;52.674;13.574;2023-07-29T03:25:59;10.68;;;6.30;;
80334;SDS011;69653;52.674;13.574;2023-07-29T03:28:26;10.88;;;6.47;;
80334;SDS011;69653;52.674;13.574;2023-07-29T03:30:52;16.77;;;6.60;;
80334;SDS011;69653;52.674;13.574;2023-07-29T03:33:18;14.13;;;6.80;;
80334;SDS011;69653;52.674;13.574;2023-07-29T03:35:44;11.52;;;5.95;;
80334;SDS011;69653;52.674;13.574;2023-07-29T03:38:10;10.77;;;6.43;;
80334;SDS011;69653;52.674;13.574;2023-07-29T03:40:36;11.00;;;5.78;;
80334;SDS011;69653;52.674;13.574;2023-07-29T03:43:01;11.52;;;6.03;;
80334;SDS011;69653;52.674;13.574;2023-07-29T03:45:27;10.80;;;5.80;;
80334;SDS011;69653;52.674;13.574;2023-07-29T03:47:52;8.43;;;5.57;;
80334;SDS011;69653;52.674;13.574;2023-07-29T03:50:17;9.20;;;6.03;;
80334;SDS011;69653;52.674;13.574;2023-07-29T03:52:43;10.43;;;5.70;;
80334;SDS011;69653;52.674;13.574;2023-07-29T03:55:08;9.23;;;5.23;;
80334;SDS011;69653;52.674;13.574;2023-07-29T03:57:33;9.52;;;5.82;;
80334;SDS011;69653;52.674;13.574;2023-07-29T03:59:59;10.37;;;5.90;;
80334;SDS011;69653;52.674;13.574;2023-07-29T04:02:24;10.50;;;6.00;;
80334;SDS011;69653;52.674;13.574;2023-07-29T04:04:49;12.70;;;6.43;;
80334;SDS011;69653;52.674;13.574;2023-07-29T04:07:15;13.10;;;6.57;;
80334;SDS011;69653;52.674;13.574;2023-07-29T04:09:40;11.23;;;6.32;;
80334;SDS011;69653;52.674;13.574;2023-07-29T04:12:06;10.70;;;6.05;;
80334;SDS011;69653;52.674;13.574;2023-07-29T04:14:32;11.05;;;6.25;;
80334;SDS011;69653;52.674;13.574;2023-07-29T04:16:57;10.93;;;6.07;;
80334;SDS011;69653;52.674;13.574;2023-07-29T04:19:22;12.40;;;6.37;;
80334;SDS011;69653;52.674;13.574;2023-07-29T04:21:48;11.63;;;6.03;;
80334;SDS011;69653;52.674;13.574;2023-07-29T04:24:15;9.30;;;5.60;;
80334;SDS011;69653;52.674;13.574;2023-07-29T04:26:41;10.67;;;5.97;;
80334;SDS011;69653;52.674;13.574;2023-07-29T04:29:06;11.07;;;5.83;;
80334;SDS011;69653;52.674;13.574;2023-07-29T04:31:31;9.90;;;5.10;;
80334;SDS011;69653;52.674;13.574;2023-07-29T04:33:56;9.77;;;5.10;;
80334;SDS011;69653;52.674;13.574;2023-07-29T04:36:22;11.90;;;5.80;;
80334;SDS011;69653;52.674;13.574;2023-07-29T04:38:47;10.20;;;5.37;;
80334;SDS011;69653;52.674;13.574;2023-07-29T04:41:12;8.00;;;4.50;;
80334;SDS011;69653;52.674;13.574;2023-07-29T04:43:38;11.27;;;4.70;;
80334;SDS011;69653;52.674;13.574;2023-07-29T04:46:06;9.23;;;5.20;;
80334;SDS011;69653;52.674;13.574;2023-07-29T04:48:32;9.07;;;4.65;;
80334;SDS011;69653;52.674;13.574;2023-07-29T04:50:58;7.07;;;4.83;;
80334;SDS011;69653;52.674;13.574;2023-07-29T04:53:23;9.57;;;4.90;;
80334;SDS011;69653;52.674;13.574;2023-07-29T04:55:48;10.93;;;4.50;;
80334;SDS011;69653;52.674;13.574;2023-07-29T04:58:14;9.03;;;4.37;;
80334;SDS011;69653;52.674;13.574;2023-07-29T05:00:39;11.00;;;4.70;;
80334;SDS011;69653;52.674;13.574;2023-07-29T05:03:05;7.10;;;4.38;;
80334;SDS011;69653;52.674;13.574;2023-07-29T05:05:31;8.07;;;4.18;;
80334;SDS011;69653;52.674;13.574;2023-07-29T05:07:57;8.32;;;4.10;;
80334;SDS011;69653;52.674;13.574;2023-07-29T05:10:22;6.83;;;4.23;;
80334;SDS011;69653;52.674;13.574;2023-07-29T05:12:47;8.75;;;5.18;;
80334;SDS011;69653;52.674;13.574;2023-07-29T05:15:13;8.70;;;4.15;;
80334;SDS011;69653;52.674;13.574;2023-07-29T05:17:39;7.30;;;4.55;;
80334;SDS011;69653;52.674;13.574;2023-07-29T05:20:04;13.35;;;4.80;;
80334;SDS011;69653;52.674;13.574;2023-07-29T05:22:30;7.80;;;4.43;;
80334;SDS011;69653;52.674;13.574;2023-07-29T05:24:55;6.03;;;3.77;;
80334;SDS011;69653;52.674;13.574;2023-07-29T05:27:21;7.67;;;3.83;;
80334;SDS011;69653;52.674;13.574;2023-07-29T05:29:46;7.57;;;4.23;;
80334;SDS011;69653;52.674;13.574;2023-07-29T05:32:11;7.27;;;4.57;;
80334;SDS011;69653;52.674;13.574;2023-07-29T05:34:36;7.97;;;4.27;;
80334;SDS011;69653;52.674;13.574;2023-07-29T05:37:02;9.20;;;4.18;;
80334;SDS011;69653;52.674;13.574;2023-07-29T05:39:28;8.57;;;4.85;;
80334;SDS011;69653;52.674;13.574;2023-07-29T05:41:53;7.55;;;4.20;;
80334;SDS011;69653;52.674;13.574;2023-07-29T05:44:19;7.27;;;4.20;;
80334;SDS011;69653;52.674;13.574;2023-07-29T05:46:45;8.45;;;4.45;;
80334;SDS011;69653;52.674;13.574;2023-07-29T05:49:10;9.40;;;4.53;;
80334;SDS011;69653;52.674;13.574;2023-07-29T05:51:35;7.40;;;4.67;;
80334;SDS011;69653;52.674;13.574;2023-07-29T05:54:00;7.57;;;4.17;;
80334;SDS011;69653;52.674;13.574;2023-07-29T05:56:26;6.63;;;4.37;;
80334;SDS011;69653;52.674;13.574;2023-07-29T05:58:51;7.97;;;4.97;;
80334;SDS011;69653;52.674;13.574;2023-07-29T06:01:16;6.43;;;4.67;;
80334;SDS011;69653;52.674;13.574;2023-07-29T06:03:42;7.63;;;4.60;;
80334;SDS011;69653;52.674;13.574;2023-07-29T06:06:07;8.37;;;5.17;;
80334;SDS011;69653;52.674;13.574;2023-07-29T06:08:32;6.78;;;4.70;;
80334;SDS011;69653;52.674;13.574;2023-07-29T06:10:59;6.85;;;4.60;;
80334;SDS011;69653;52.674;13.574;2023-07-29T06:13:25;7.53;;;4.72;;
80334;SDS011;69653;52.674;13.574;2023-07-29T06:15:50;9.17;;;4.83;;
80334;SDS011;69653;52.674;13.574;2023-07-29T06:18:15;6.80;;;4.40;;
80334;SDS011;69653;52.674;13.574;2023-07-29T06:20:40;6.60;;;4.17;;
80334;SDS011;69653;52.674;13.574;2023-07-29T06:23:06;7.37;;;4.73;;
80334;SDS011;69653;52.674;13.574;2023-07-29T06:25:33;8.00;;;5.00;;
80334;SDS011;69653;52.674;13.574;2023-07-29T06:27:58;6.27;;;4.07;;
80334;SDS011;69653;52.674;13.574;2023-07-29T06:30:23;7.93;;;4.60;;
80334;SDS011;69653;52.674;13.574;2023-07-29T06:32:49;8.80;;;5.22;;
80334;SDS011;69653;52.674;13.574;2023-07-29T06:35:14;7.03;;;4.47;;
80334;SDS011;69653;52.674;13.574;2023-07-29T06:37:39;8.43;;;5.37;;
80334;SDS011;69653;52.674;13.574;2023-07-29T06:40:05;7.37;;;4.73;;
80334;SDS011;69653;52.674;13.574;2023-07-29T06:42:31;8.63;;;4.90;;
80334;SDS011;69653;52.674;13.574;2023-07-29T06:44:56;7.33;;;4.40;;
80334;SDS011;69653;52.674;13.574;2023-07-29T06:47:21;7.20;;;4.77;;
80334;SDS011;69653;52.674;13.574;2023-07-29T06:49:46;7.27;;;5.00;;
80334;SDS011;69653;52.674;13.574;2023-07-29T06:52:12;6.88;;;4.63;;
80334;SDS011;69653;52.674;13.574;2023-07-29T06:54:37;7.03;;;5.07;;
80334;SDS011;69653;52.674;13.574;2023-07-29T06:57:03;6.90;;;4.73;;
80334;SDS011;69653;52.674;13.574;2023-07-29T06:59:28;9.02;;;5.22;;
80334;SDS011;69653;52.674;13.574;2023-07-29T07:01:54;7.85;;;4.65;;
80334;SDS011;69653;52.674;13.574;2023-07-29T07:04:19;6.57;;;4.27;;
80334;SDS011;69653;52.674;13.574;2023-07-29T07:06:45;8.30;;;5.10;;
80334;SDS011;69653;52.674;13.574;2023-07-29T07:09:10;7.03;;;4.22;;
80334;SDS011;69653;52.674;13.574;2023-07-29T07:11:35;5.77;;;3.73;;
80334;SDS011;69653;52.674;13.574;2023-07-29T07:14:01;6.73;;;4.37;;
80334;SDS011;69653;52.674;13.574;2023-07-29T07:16:26;6.20;;;4.10;;
80334;SDS011;69653;52.674;13.574;2023-07-29T07:18:54;6.18;;;4.22;;
80334;SDS011;69653;52.674;13.574;2023-07-29T07:21:19;7.87;;;4.70;;
80334;SDS011;69653;52.674;13.574;2023-07-29T07:23:45;7.27;;;4.80;;
80334;SDS011;69653;52.674;13.574;2023-07-29T07:26:10;7.70;;;4.33;;
80334;SDS011;69653;52.674;13.574;2023-07-29T07:28:35;7.77;;;4.40;;
80334;SDS011;69653;52.674;13.574;2023-07-29T07:31:00;7.90;;;4.37;;
80334;SDS011;69653;52.674;13.574;2023-07-29T07:33:26;7.40;;;4.40;;
80334;SDS011;69653;52.674;13.574;2023-07-29T07:35:51;7.27;;;4.27;;
80334;SDS011;69653;52.674;13.574;2023-07-29T07:38:16;6.50;;;4.00;;
80334;SDS011;69653;52.674;13.574;2023-07-29T07:40:42;5.87;;;3.67;;
80334;SDS011;69653;52.674;13.574;2023-07-29T07:43:07;6.70;;;4.63;;
80334;SDS011;69653;52.674;13.574;2023-07-29T07:45:32;7.17;;;3.90;;
80334;SDS011;69653;52.674;13.574;2023-07-29T07:47:57;6.60;;;3.63;;
80334;SDS011;69653;52.674;13.574;2023-07-29T07:50:23;5.43;;;3.90;;
80334;SDS011;69653;52.674;13.574;2023-07-29T07:52:49;6.70;;;4.05;;
80334;SDS011;69653;52.674;13.574;2023-07-29T07:55:14;6.00;;;3.88;;
80334;SDS011;69653;52.674;13.574;2023-07-29T07:57:40;6.68;;;4.15;;
80334;SDS011;69653;52.674;13.574;2023-07-29T08:00:05;6.17;;;3.60;;
80334;SDS011;69653;52.674;13.574;2023-07-29T08:02:31;15.50;;;8.48;;
80334;SDS011;69653;52.674;13.574;2023-07-29T08:04:56;6.73;;;4.10;;
80334;SDS011;69653;52.674;13.574;2023-07-29T08:07:21;7.30;;;4.60;;
80334;SDS011;69653;52.674;13.574;2023-07-29T08:09:47;7.17;;;4.17;;
80334;SDS011;69653;52.674;13.574;2023-07-29T08:12:12;8.17;;;6.03;;
80334;SDS011;69653;52.674;13.574;2023-07-29T08:14:37;7.70;;;5.40;;
80334;SDS011;69653;52.674;13.574;2023-07-29T08:17:03;6.53;;;4.73;;
80334;SDS011;69653;52.674;13.574;2023-07-29T08:19:28;7.63;;;4.63;;
80334;SDS011;69653;52.674;13.574;2023-07-29T08:21:54;5.93;;;4.10;;
80334;SDS011;69653;52.674;13.574;2023-07-29T08:24:19;7.17;;;5.33;;
80334;SDS011;69653;52.674;13.574;2023-07-29T08:26:44;7.43;;;5.50;;
80334;SDS011;69653;52.674;13.574;2023-07-29T08:29:10;8.70;;;5.72;;
80334;SDS011;69653;52.674;13.574;2023-07-29T08:31:35;6.53;;;4.67;;
80334;SDS011;69653;52.674;13.574;2023-07-29T08:34:00;10.43;;;5.27;;
80334;SDS011;69653;52.674;13.574;2023-07-29T08:36:26;7.70;;;4.57;;
80334;SDS011;69653;52.674;13.574;2023-07-29T08:38:51;6.63;;;4.23;;
80334;SDS011;69653;52.674;13.574;2023-07-29T08:41:19;6.90;;;3.80;;
80334;SDS011;69653;52.674;13.574;2023-07-29T08:46:24;6.80;;;4.00;;
80334;SDS011;69653;52.674;13.574;2023-07-29T08:48:51;6.82;;;4.47;;
80334;SDS011;69653;52.674;13.574;2023-07-29T08:51:16;5.78;;;3.55;;
80334;SDS011;69653;52.674;13.574;2023-07-29T08:53:42;7.35;;;4.30;;
80334;SDS011;69653;52.674;13.574;2023-07-29T08:56:08;6.35;;;4.05;;
80334;SDS011;69653;52.674;13.574;2023-07-29T08:58:33;5.57;;;4.25;;
80334;SDS011;69653;52.674;13.574;2023-07-29T09:01:00;6.78;;;4.82;;
80334;SDS011;69653;52.674;13.574;2023-07-29T09:03:26;6.43;;;4.30;;
80334;SDS011;69653;52.674;13.574;2023-07-29T09:05:51;7.23;;;4.50;;
80334;SDS011;69653;52.674;13.574;2023-07-29T09:08:17;6.53;;;4.60;;
80334;SDS011;69653;52.674;13.574;2023-07-29T09:10:43;6.15;;;4.60;;
80334;SDS011;69653;52.674;13.574;2023-07-29T09:13:09;8.27;;;4.50;;
80334;SDS011;69653;52.674;13.574;2023-07-29T09:15:35;6.90;;;4.63;;
80334;SDS011;69653;52.674;13.574;2023-07-29T09:18:17;6.05;;;4.40;;
80334;SDS011;69653;52.674;13.574;2023-07-29T09:20:47;6.30;;;3.90;;
80334;SDS011;69653;52.674;13.574;2023-07-29T09:23:14;9.63;;;6.90;;
80334;SDS011;69653;52.674;13.574;2023-07-29T09:25:39;6.32;;;4.43;;
80334;SDS011;69653;52.674;13.574;2023-07-29T09:28:12;6.07;;;4.10;;
80334;SDS011;69653;52.674;13.574;2023-07-29T09:30:39;5.50;;;4.18;;
80334;SDS011;69653;52.674;13.574;2023-07-29T09:33:06;6.10;;;3.78;;
80334;SDS011;69653;52.674;13.574;2023-07-29T09:35:32;6.72;;;4.28;;
80334;SDS011;69653;52.674;13.574;2023-07-29T09:37:59;6.88;;;3.90;;
80334;SDS011;69653;52.674;13.574;2023-07-29T09:40:25;5.80;;;3.58;;
80334;SDS011;69653;52.674;13.574;2023-07-29T09:42:51;5.68;;;4.00;;
80334;SDS011;69653;52.674;13.574;2023-07-29T09:45:21;6.43;;;3.63;;
80334;SDS011;69653;52.674;13.574;2023-07-29T09:47:51;5.07;;;3.45;;
80334;SDS011;69653;52.674;13.574;2023-07-29T09:50:23;5.85;;;3.78;;
80334;SDS011;69653;52.674;13.574;2023-07-29T09:52:50;4.60;;;3.13;;
80334;SDS011;69653;52.674;13.574;2023-07-29T09:55:20;5.22;;;2.90;;
80334;SDS011;69653;52.674;13.574;2023-07-29T09:57:47;5.20;;;3.22;;
80334;SDS011;69653;52.674;13.574;2023-07-29T10:00:12;5.25;;;3.40;;
80334;SDS011;69653;52.674;13.574;2023-07-29T10:02:43;5.25;;;3.10;;
80334;SDS011;69653;52.674;13.574;2023-07-29T10:05:09;4.80;;;3.08;;
80334;SDS011;69653;52.674;13.574;2023-07-29T10:07:36;5.00;;;3.20;;
80334;SDS011;69653;52.674;13.574;2023-07-29T10:10:03;5.63;;;3.22;;
80334;SDS011;69653;52.674;13.574;2023-07-29T10:12:30;4.28;;;2.80;;
80334;SDS011;69653;52.674;13.574;2023-07-29T10:14:58;5.78;;;3.28;;
80334;SDS011;69653;52.674;13.574;2023-07-29T10:17:25;4.72;;;2.90;;
80334;SDS011;69653;52.674;13.574;2023-07-29T10:19:51;4.57;;;2.97;;
80334;SDS011;69653;52.674;13.574;2023-07-29T10:22:17;4.10;;;2.65;;
80334;SDS011;69653;52.674;13.574;2023-07-29T10:27:13;5.55;;;3.20;;
80334;SDS011;69653;52.674;13.574;2023-07-29T10:29:42;4.72;;;3.13;;
80334;SDS011;69653;52.674;13.574;2023-07-29T10:32:10;4.47;;;3.15;;
80334;SDS011;69653;52.674;13.574;2023-07-29T10:34:36;5.78;;;2.88;;
80334;SDS011;69653;52.674;13.574;2023-07-29T10:37:01;7.43;;;2.70;;
80334;SDS011;69653;52.674;13.574;2023-07-29T10:39:27;4.55;;;2.63;;
80334;SDS011;69653;52.674;13.574;2023-07-29T10:41:59;4.85;;;2.80;;
80334;SDS011;69653;52.674;13.574;2023-07-29T10:49:42;5.05;;;2.83;;
80334;SDS011;69653;52.674;13.574;2023-07-29T10:52:08;4.60;;;2.55;;
80334;SDS011;69653;52.674;13.574;2023-07-29T10:54:45;4.70;;;2.80;;
80334;SDS011;69653;52.674;13.574;2023-07-29T10:57:15;5.25;;;2.50;;
80334;SDS011;69653;52.674;13.574;2023-07-29T10:59:55;3.72;;;2.15;;
80334;SDS011;69653;52.674;13.574;2023-07-29T11:02:21;4.10;;;2.40;;
80334;SDS011;69653;52.674;13.574;2023-07-29T11:04:54;5.30;;;2.60;;
80334;SDS011;69653;52.674;13.574;2023-07-29T11:07:20;4.80;;;2.40;;
80334;SDS011;69653;52.674;13.574;2023-07-29T11:15:03;5.05;;;2.42;;
80334;SDS011;69653;52.674;13.574;2023-07-29T11:17:29;9.20;;;4.32;;
80334;SDS011;69653;52.674;13.574;2023-07-29T11:20:00;6.93;;;3.63;;
80334;SDS011;69653;52.674;13.574;2023-07-29T11:22:26;3.83;;;2.15;;
80334;SDS011;69653;52.674;13.574;2023-07-29T11:24:51;16.85;;;8.90;;
80334;SDS011;69653;52.674;13.574;2023-07-29T11:27:17;5.03;;;2.65;;
80334;SDS011;69653;52.674;13.574;2023-07-29T11:29:43;6.00;;;1.60;;
80334;SDS011;69653;52.674;13.574;2023-07-29T11:32:09;3.72;;;1.30;;
80334;SDS011;69653;52.674;13.574;2023-07-29T11:34:34;5.53;;;1.10;;
80334;SDS011;69653;52.674;13.574;2023-07-29T11:37:00;2.55;;;0.82;;
80334;SDS011;69653;52.674;13.574;2023-07-29T11:39:25;2.40;;;0.90;;
80334;SDS011;69653;52.674;13.574;2023-07-29T11:41:50;6.37;;;1.77;;
80334;SDS011;69653;52.674;13.574;2023-07-29T11:44:16;4.20;;;1.38;;
80334;SDS011;69653;52.674;13.574;2023-07-29T11:46:43;5.72;;;1.33;;
80334;SDS011;69653;52.674;13.574;2023-07-29T11:49:08;3.92;;;1.10;;
80334;SDS011;69653;52.674;13.574;2023-07-29T11:51:33;2.90;;;1.10;;
80334;SDS011;69653;52.674;13.574;2023-07-29T11:53:59;3.00;;;1.15;;
80334;SDS011;69653;52.674;13.574;2023-07-29T11:56:25;4.18;;;1.33;;
80334;SDS011;69653;52.674;13.574;2023-07-29T11:58:51;3.20;;;1.17;;
80334;SDS011;69653;52.674;13.574;2023-07-29T12:01:16;3.13;;;1.17;;
80334;SDS011;69653;52.674;13.574;2023-07-29T12:03:42;6.40;;;1.50;;
80334;SDS011;69653;52.674;13.574;2023-07-29T12:06:08;4.60;;;1.90;;
80334;SDS011;69653;52.674;13.574;2023-07-29T12:08:34;3.92;;;1.40;;
80334;SDS011;69653;52.674;13.574;2023-07-29T12:10:59;5.05;;;2.05;;
80334;SDS011;69653;52.674;13.574;2023-07-29T12:13:25;3.43;;;1.10;;
80334;SDS011;69653;52.674;13.574;2023-07-29T12:15:50;5.05;;;1.90;;
80334;SDS011;69653;52.674;13.574;2023-07-29T12:18:16;6.88;;;2.85;;
80334;SDS011;69653;52.674;13.574;2023-07-29T12:20:41;6.40;;;1.90;;
80334;SDS011;69653;52.674;13.574;2023-07-29T12:23:06;4.95;;;1.90;;
80334;SDS011;69653;52.674;13.574;2023-07-29T12:25:33;5.00;;;2.70;;
80334;SDS011;69653;52.674;13.574;2023-07-29T12:28:03;3.33;;;1.42;;
80334;SDS011;69653;52.674;13.574;2023-07-29T12:30:30;5.43;;;2.40;;
80334;SDS011;69653;52.674;13.574;2023-07-29T12:32:55;6.25;;;1.73;;
80334;SDS011;69653;52.674;13.574;2023-07-29T12:35:21;5.90;;;2.07;;
80334;SDS011;69653;52.674;13.574;2023-07-29T12:37:46;3.97;;;1.50;;
80334;SDS011;69653;52.674;13.574;2023-07-29T12:40:21;3.60;;;1.50;;
80334;SDS011;69653;52.674;13.574;2023-07-29T12:42:50;5.65;;;2.05;;
80334;SDS011;69653;52.674;13.574;2023-07-29T12:45:16;5.75;;;2.33;;
80334;SDS011;69653;52.674;13.574;2023-07-29T12:47:43;3.38;;;1.27;;
80334;SDS011;69653;52.674;13.574;2023-07-29T12:50:08;3.38;;;1.10;;
80334;SDS011;69653;52.674;13.574;2023-07-29T12:52:34;4.47;;;0.95;;
80334;SDS011;69653;52.674;13.574;2023-07-29T12:54:59;3.00;;;1.13;;
80334;SDS011;69653;52.674;13.574;2023-07-29T12:57:25;4.00;;;1.20;;
80334;SDS011;69653;52.674;13.574;2023-07-29T12:59:50;3.63;;;1.17;;
80334;SDS011;69653;52.674;13.574;2023-07-29T13:02:15;5.43;;;1.43;;
80334;SDS011;69653;52.674;13.574;2023-07-29T13:04:40;3.37;;;1.40;;
80334;SDS011;69653;52.674;13.574;2023-07-29T13:07:06;3.30;;;1.40;;
80334;SDS011;69653;52.674;13.574;2023-07-29T13:09:31;4.60;;;2.42;;
80334;SDS011;69653;52.674;13.574;2023-07-29T13:11:57;5.35;;;1.70;;
80334;SDS011;69653;52.674;13.574;2023-07-29T13:14:22;5.25;;;1.55;;
80334;SDS011;69653;52.674;13.574;2023-07-29T13:16:48;5.05;;;1.90;;
80334;SDS011;69653;52.674;13.574;2023-07-29T13:19:13;4.53;;;2.43;;
80334;SDS011;69653;52.674;13.574;2023-07-29T13:21:38;3.77;;;1.50;;
80334;SDS011;69653;52.674;13.574;2023-07-29T13:24:04;4.57;;;1.90;;
80334;SDS011;69653;52.674;13.574;2023-07-29T13:26:29;4.57;;;1.80;;
80334;SDS011;69653;52.674;13.574;2023-07-29T13:28:54;3.22;;;1.48;;
80334;SDS011;69653;52.674;13.574;2023-07-29T13:31:21;3.70;;;1.77;;
80334;SDS011;69653;52.674;13.574;2023-07-29T13:33:46;5.68;;;1.90;;
80334;SDS011;69653;52.674;13.574;2023-07-29T13:36:11;4.53;;;1.80;;
80334;SDS011;69653;52.674;13.574;2023-07-29T13:38:36;3.67;;;1.80;;
80334;SDS011;69653;52.674;13.574;2023-07-29T13:41:02;4.97;;;1.90;;
80334;SDS011;69653;52.674;13.574;2023-07-29T13:43:28;3.40;;;1.80;;
80334;SDS011;69653;52.674;13.574;2023-07-29T13:45:53;6.47;;;2.53;;
80334;SDS011;69653;52.674;13.574;2023-07-29T13:48:18;4.63;;;1.67;;
80334;SDS011;69653;52.674;13.574;2023-07-29T13:50:44;3.88;;;2.03;;
80334;SDS011;69653;52.674;13.574;2023-07-29T13:53:10;4.43;;;1.85;;
80334;SDS011;69653;52.674;13.574;2023-07-29T13:55:36;4.45;;;1.90;;
80334;SDS011;69653;52.674;13.574;2023-07-29T13:58:01;4.30;;;2.47;;
80334;SDS011;69653;52.674;13.574;2023-07-29T14:00:26;4.03;;;2.17;;
80334;SDS011;69653;52.674;13.574;2023-07-29T14:02:52;4.80;;;2.37;;
80334;SDS011;69653;52.674;13.574;2023-07-29T14:05:17;4.43;;;1.93;;
80334;SDS011;69653;52.674;13.574;2023-07-29T14:07:42;10.37;;;4.93;;
80334;SDS011;69653;52.674;13.574;2023-07-29T14:10:08;10.63;;;5.70;;
80334;SDS011;69653;52.674;13.574;2023-07-29T14:12:33;5.43;;;3.17;;
80334;SDS011;69653;52.674;13.574;2023-07-29T14:14:59;5.78;;;3.08;;
80334;SDS011;69653;52.674;13.574;2023-07-29T14:17:24;4.33;;;2.10;;
80334;SDS011;69653;52.674;13.574;2023-07-29T14:19:49;5.33;;;2.30;;
80334;SDS011;69653;52.674;13.574;2023-07-29T14:22:15;5.80;;;2.43;;
80334;SDS011;69653;52.674;13.574;2023-07-29T14:24:40;4.37;;;2.40;;
80334;SDS011;69653;52.674;13.574;2023-07-29T14:27:05;4.60;;;2.53;;
80334;SDS011;69653;52.674;13.574;2023-07-29T14:29:31;4.97;;;1.73;;
80334;SDS011;69653;52.674;13.574;2023-07-29T14:31:56;4.72;;;1.80;;
80334;SDS011;69653;52.674;13.574;2023-07-29T14:34:22;3.15;;;1.75;;
80334;SDS011;69653;52.674;13.574;2023-07-29T14:36:47;4.32;;;1.60;;
80334;SDS011;69653;52.674;13.574;2023-07-29T14:39:13;3.80;;;1.30;;
80334;SDS011;69653;52.674;13.574;2023-07-29T14:41:38;3.22;;;1.33;;